Terminal Aerodrome Forecast
Issued by NWS St Louis, MO

Home | Current Version | Previous Version | Text Only | Print | Product List | Glossary On
Versions: 1 2 3 4 5 6 7 8 9 10 11 12 13 14 15 16 17
854
FTUS43 KLSX 090539
TAFCOU
TAF
KCOU 090539Z 0906/1006 26008KT P6SM SKC
     FM091000 29011KT P6SM OVC020
     FM091500 33015G23KT P6SM SCT030
     FM092200 31011KT P6SM SKC
     FM100000 31006KT P6SM FEW250=

USA.gov is the U.S. government's official web portal to all federal, state and local government web resources and services.